createdAt,value
2023-03-26T00:01:33.726Z,50.30
2023-03-26T00:04:01.825Z,50.27
2023-03-26T00:06:36.773Z,49.73
2023-03-26T00:09:06.959Z,49.98
2023-03-26T00:11:34.829Z,49.95
2023-03-26T00:14:02.693Z,49.33
2023-03-26T00:16:31.408Z,50.55
2023-03-26T00:18:59.971Z,49.94
2023-03-26T00:21:29.237Z,49.96
2023-03-26T00:24:04.713Z,49.83
2023-03-26T00:26:37.647Z,49.47
2023-03-26T00:29:06.700Z,50.79
2023-03-26T00:31:34.771Z,50.43
2023-03-26T00:34:03.884Z,50.70
2023-03-26T00:36:32.137Z,51.59
2023-03-26T00:38:59.702Z,51.27
2023-03-26T00:41:30.847Z,51.60
2023-03-26T00:44:00.209Z,52.18
2023-03-26T00:46:30.612Z,51.95
2023-03-26T00:49:01.855Z,52.28
2023-03-26T00:51:30.080Z,51.51
2023-03-26T00:53:57.962Z,51.80
2023-03-26T00:56:26.183Z,52.29
2023-03-26T00:58:53.925Z,52.71
2023-03-26T01:01:27.315Z,53.66
2023-03-26T01:04:08.373Z,53.06
2023-03-26T01:06:41.243Z,52.86
2023-03-26T01:09:16.335Z,52.91
2023-03-26T01:11:44.235Z,53.17
2023-03-26T01:14:16.851Z,53.52
2023-03-26T01:16:56.696Z,53.25
2023-03-26T01:19:44.681Z,52.65
2023-03-26T01:22:18.014Z,52.83
2023-03-26T01:24:52.184Z,53.27
2023-03-26T01:27:34.594Z,52.74
2023-03-26T01:30:11.177Z,53.04
2023-03-26T01:32:57.780Z,52.07
2023-03-26T01:35:46.112Z,52.03
2023-03-26T01:38:13.490Z,51.88
2023-03-26T01:41:03.439Z,53.20
2023-03-26T01:43:33.723Z,51.76
2023-03-26T01:46:05.415Z,51.39
2023-03-26T01:48:38.559Z,51.23
2023-03-26T01:51:07.293Z,50.41
2023-03-26T01:53:38.406Z,50.54
2023-03-26T01:56:13.317Z,50.56
2023-03-26T01:59:05.753Z,50.67
2023-03-26T02:01:46.156Z,50.62
2023-03-26T02:04:48.169Z,50.56
2023-03-26T02:07:45.052Z,49.84
2023-03-26T02:10:21.556Z,49.57
2023-03-26T02:12:50.031Z,49.16
2023-03-26T02:15:17.614Z,49.23
2023-03-26T02:17:45.043Z,49.12
2023-03-26T02:20:14.310Z,49.35
2023-03-26T02:22:45.601Z,49.63
2023-03-26T02:25:18.945Z,49.14
2023-03-26T02:27:47.806Z,48.86
2023-03-26T02:30:21.664Z,48.93
2023-03-26T02:32:52.350Z,49.03
2023-03-26T02:35:21.914Z,48.97
2023-03-26T02:37:50.874Z,48.72
2023-03-26T02:40:21.180Z,48.80
2023-03-26T02:42:49.628Z,48.65
2023-03-26T02:45:17.319Z,48.80
2023-03-26T02:47:47.634Z,48.96
2023-03-26T02:50:16.921Z,48.79
2023-03-26T02:52:45.417Z,48.69
2023-03-26T02:55:12.884Z,48.18
2023-03-26T02:57:41.296Z,48.54
2023-03-26T03:00:11.074Z,48.32
2023-03-26T03:02:39.824Z,48.56
2023-03-26T03:05:09.226Z,48.26
2023-03-26T03:07:38.640Z,48.45
2023-03-26T03:10:09.984Z,48.62
2023-03-26T03:12:41.248Z,48.53
2023-03-26T03:15:09.288Z,48.55
2023-03-26T03:17:36.743Z,48.62
2023-03-26T03:20:06.869Z,48.84
2023-03-26T03:22:34.404Z,49.07
2023-03-26T03:25:02.658Z,49.16
2023-03-26T03:27:30.657Z,49.27
2023-03-26T03:29:59.039Z,49.19
2023-03-26T03:32:27.722Z,49.14
2023-03-26T03:34:56.494Z,49.22
2023-03-26T03:37:26.334Z,49.17
2023-03-26T03:39:54.187Z,49.60
2023-03-26T03:42:22.305Z,49.50
2023-03-26T03:44:50.591Z,49.54
2023-03-26T03:47:20.340Z,49.64
2023-03-26T03:49:48.325Z,49.73
2023-03-26T03:52:16.394Z,50.20
2023-03-26T03:54:43.829Z,50.47
2023-03-26T03:57:12.183Z,50.40
2023-03-26T03:59:47.903Z,50.36
2023-03-26T04:02:34.683Z,50.32
2023-03-26T04:05:04.416Z,50.47
2023-03-26T04:07:32.683Z,50.55
2023-03-26T04:10:08.329Z,50.68
2023-03-26T04:12:37.230Z,50.87
2023-03-26T04:15:05.905Z,50.85
2023-03-26T04:17:33.505Z,50.85
2023-03-26T04:20:14.505Z,50.57
2023-03-26T04:22:43.857Z,51.11
2023-03-26T04:25:12.467Z,50.92
2023-03-26T04:27:43.976Z,51.66
2023-03-26T04:30:15.702Z,51.82
2023-03-26T04:32:44.705Z,51.68
2023-03-26T04:35:16.767Z,51.87
2023-03-26T04:37:46.109Z,51.67
2023-03-26T04:40:18.360Z,51.51
2023-03-26T04:42:46.725Z,51.77
2023-03-26T04:45:17.751Z,51.79
2023-03-26T04:47:46.434Z,52.32
2023-03-26T04:50:14.726Z,51.98
2023-03-26T04:52:45.084Z,52.08
2023-03-26T04:56:06.449Z,51.94
2023-03-26T04:58:35.704Z,52.20
2023-03-26T05:01:10.277Z,52.64
2023-03-26T05:03:39.195Z,52.67
2023-03-26T05:06:09.982Z,52.11
2023-03-26T05:08:37.440Z,51.80
2023-03-26T05:11:11.361Z,51.89
2023-03-26T05:13:39.622Z,52.11
2023-03-26T05:16:08.678Z,52.29
2023-03-26T05:18:36.693Z,52.16
2023-03-26T05:21:05.355Z,52.41
2023-03-26T05:23:33.343Z,52.37
2023-03-26T05:26:01.710Z,52.75
2023-03-26T05:28:29.497Z,52.11
2023-03-26T05:30:57.217Z,52.00
2023-03-26T05:33:25.063Z,52.20
2023-03-26T05:36:05.597Z,52.58
2023-03-26T05:38:33.417Z,52.62
2023-03-26T05:41:03.789Z,51.91
2023-03-26T05:43:31.356Z,51.53
2023-03-26T05:45:59.235Z,51.72
2023-03-26T05:48:27.921Z,51.83
2023-03-26T05:50:57.695Z,51.61
2023-03-26T05:53:27.105Z,51.63
2023-03-26T05:56:06.455Z,51.73
2023-03-26T05:58:36.676Z,51.61
2023-03-26T06:01:08.407Z,51.46
2023-03-26T06:03:39.555Z,51.42
2023-03-26T06:06:09.741Z,50.69
2023-03-26T06:08:37.941Z,50.43
2023-03-26T06:11:08.086Z,48.73
2023-03-26T06:13:36.034Z,48.22
2023-03-26T06:16:03.853Z,47.27
2023-03-26T06:18:31.651Z,46.85
2023-03-26T06:20:59.578Z,45.95
2023-03-26T06:23:28.351Z,45.02
2023-03-26T06:25:56.208Z,43.86
2023-03-26T06:28:24.459Z,42.87
2023-03-26T06:30:52.827Z,42.28
2023-03-26T06:33:22.130Z,42.33
2023-03-26T06:35:51.486Z,42.11
2023-03-26T06:38:19.393Z,41.61
2023-03-26T06:40:47.006Z,41.23
2023-03-26T06:43:14.762Z,40.95
2023-03-26T06:45:43.589Z,41.00
2023-03-26T06:48:12.785Z,41.91
2023-03-26T06:50:40.837Z,40.65
2023-03-26T06:53:09.996Z,40.42
2023-03-26T06:55:38.296Z,40.73
2023-03-26T06:58:06.428Z,40.33
2023-03-26T07:00:35.837Z,40.03
2023-03-26T07:03:06.210Z,40.06
2023-03-26T07:05:43.114Z,40.21
2023-03-26T07:08:10.560Z,40.13
2023-03-26T07:10:39.310Z,39.97
2023-03-26T07:13:07.523Z,40.06
2023-03-26T07:15:35.867Z,40.28
2023-03-26T07:18:03.476Z,40.47
2023-03-26T07:20:31.455Z,39.96
2023-03-26T07:22:59.573Z,39.17
2023-03-26T07:25:29.198Z,39.26
2023-03-26T07:28:03.658Z,39.47
2023-03-26T07:30:50.583Z,39.07
2023-03-26T07:33:30.543Z,38.40
2023-03-26T07:36:12.660Z,39.39
2023-03-26T07:38:49.667Z,39.82
2023-03-26T07:41:29.394Z,39.29
2023-03-26T07:44:04.269Z,39.51
2023-03-26T07:46:37.061Z,38.40
2023-03-26T07:49:06.974Z,38.71
2023-03-26T07:51:35.104Z,62.30
2023-03-26T07:54:04.267Z,46.36
2023-03-26T07:56:49.413Z,42.00
2023-03-26T07:59:39.410Z,41.36
2023-03-26T08:02:27.239Z,43.31
2023-03-26T08:05:18.960Z,39.13
2023-03-26T08:08:02.837Z,38.64
2023-03-26T08:10:52.505Z,38.94
2023-03-26T08:13:25.448Z,39.42
2023-03-26T08:16:05.727Z,39.09
2023-03-26T08:18:47.610Z,38.15
2023-03-26T08:21:22.342Z,38.62
2023-03-26T08:24:07.995Z,37.88
2023-03-26T08:26:59.426Z,37.70
2023-03-26T08:29:45.230Z,37.60
2023-03-26T08:32:16.409Z,38.13
2023-03-26T08:34:43.898Z,37.21
2023-03-26T08:37:12.985Z,37.15
2023-03-26T08:39:42.034Z,37.29
2023-03-26T08:42:24.618Z,37.15
2023-03-26T08:45:29.404Z,37.30
2023-03-26T08:48:03.674Z,36.45
2023-03-26T08:50:49.833Z,36.64
2023-03-26T08:53:24.783Z,37.08
2023-03-26T08:56:22.049Z,36.34
2023-03-26T08:59:19.746Z,36.26
2023-03-26T09:02:19.759Z,35.96
2023-03-26T09:05:14.604Z,36.13
2023-03-26T09:08:01.719Z,36.36
2023-03-26T09:10:32.104Z,36.66
2023-03-26T09:13:24.267Z,36.38
2023-03-26T09:16:17.460Z,36.39
2023-03-26T09:19:22.617Z,35.13
2023-03-26T09:22:17.105Z,34.98
2023-03-26T09:25:04.768Z,35.57
2023-03-26T09:27:38.105Z,34.20
2023-03-26T09:30:30.259Z,35.10
2023-03-26T09:33:28.420Z,35.08
2023-03-26T09:36:08.476Z,35.69
2023-03-26T09:39:09.294Z,36.21
2023-03-26T09:42:09.578Z,36.19
2023-03-26T09:44:58.243Z,35.40
2023-03-26T09:47:26.282Z,36.45
2023-03-26T09:50:15.474Z,37.62
2023-03-26T09:53:09.314Z,38.44
2023-03-26T09:56:16.521Z,38.73
2023-03-26T09:58:46.959Z,38.64
2023-03-26T10:01:20.486Z,37.95
2023-03-26T10:04:06.987Z,37.94
2023-03-26T10:06:49.680Z,38.42
2023-03-26T10:09:36.055Z,38.27
2023-03-26T10:12:28.363Z,39.81
2023-03-26T10:14:59.038Z,40.36
2023-03-26T10:17:55.631Z,43.21
2023-03-26T10:20:38.043Z,45.52
2023-03-26T10:23:18.528Z,46.43
2023-03-26T10:26:17.354Z,48.34
2023-03-26T10:29:13.046Z,48.81
2023-03-26T10:32:24.029Z,50.18
2023-03-26T10:34:57.039Z,49.03
2023-03-26T10:37:37.074Z,50.97
2023-03-26T10:40:23.654Z,49.05
2023-03-26T10:43:29.651Z,46.94
2023-03-26T10:46:09.780Z,47.88
2023-03-26T10:48:56.525Z,45.05
2023-03-26T10:51:48.819Z,45.54
2023-03-26T10:54:55.294Z,46.14
2023-03-26T10:57:54.225Z,45.33
2023-03-26T11:00:27.034Z,44.42
2023-03-26T11:03:16.052Z,44.66
2023-03-26T11:05:46.709Z,44.83
2023-03-26T11:08:56.037Z,45.53
2023-03-26T11:11:42.180Z,45.83
2023-03-26T11:14:33.896Z,46.43
2023-03-26T11:17:08.502Z,46.26
2023-03-26T11:19:53.135Z,46.98
2023-03-26T11:22:30.043Z,47.09
2023-03-26T11:25:05.425Z,46.92
2023-03-26T11:27:40.518Z,44.62
2023-03-26T11:30:17.027Z,45.18
2023-03-26T11:32:46.461Z,46.40
2023-03-26T11:35:40.939Z,46.03
2023-03-26T11:38:23.281Z,44.77
2023-03-26T11:40:53.329Z,46.40
2023-03-26T11:43:32.035Z,42.48
2023-03-26T11:45:59.530Z,43.02
2023-03-26T11:48:44.398Z,41.25
2023-03-26T11:51:18.773Z,40.18
2023-03-26T11:53:46.780Z,41.65
2023-03-26T11:56:18.304Z,41.97
2023-03-26T11:59:08.905Z,40.76
2023-03-26T12:01:56.564Z,39.30
2023-03-26T12:04:34.997Z,37.44
2023-03-26T12:07:23.814Z,36.66
2023-03-26T12:09:52.950Z,34.25
2023-03-26T12:12:20.985Z,34.10
2023-03-26T12:14:48.540Z,33.60
2023-03-26T12:17:31.913Z,32.76
2023-03-26T12:20:01.127Z,31.47
2023-03-26T12:22:38.530Z,29.07
2023-03-26T12:25:25.912Z,28.82
2023-03-26T12:28:04.807Z,28.47
2023-03-26T12:30:39.621Z,28.95
2023-03-26T12:33:16.293Z,29.18
2023-03-26T12:35:44.071Z,29.00
2023-03-26T12:38:37.263Z,28.63
2023-03-26T12:41:08.018Z,29.12
2023-03-26T12:44:49.858Z,28.79
2023-03-26T12:47:54.377Z,28.98
2023-03-26T12:49:18.799Z,29.33
2023-03-26T12:52:25.212Z,29.51
2023-03-26T12:54:55.923Z,29.07
2023-03-26T12:57:25.271Z,29.62
2023-03-26T13:00:21.353Z,30.43
2023-03-26T13:03:05.678Z,30.39
2023-03-26T13:05:55.434Z,29.90
2023-03-26T13:08:46.601Z,29.88
2023-03-26T13:11:27.529Z,30.68
2023-03-26T13:14:10.644Z,30.38
2023-03-26T13:17:04.961Z,29.29
2023-03-26T13:19:53.947Z,29.29
2023-03-26T13:22:42.487Z,28.86
2023-03-26T13:25:25.679Z,28.97
2023-03-26T13:27:56.361Z,28.70
2023-03-26T13:30:52.339Z,30.06
2023-03-26T13:33:43.344Z,30.03
2023-03-26T13:36:23.114Z,30.28
2023-03-26T13:39:10.897Z,29.56
2023-03-26T13:41:50.084Z,29.32
2023-03-26T13:44:52.737Z,29.12
2023-03-26T13:47:36.692Z,28.40
2023-03-26T13:50:29.094Z,28.33
2023-03-26T13:53:02.220Z,28.57
2023-03-26T13:55:40.120Z,27.31
2023-03-26T13:58:10.881Z,28.10
2023-03-26T14:00:41.962Z,27.37
2023-03-26T14:03:26.379Z,27.75
2023-03-26T14:05:55.940Z,27.70
2023-03-26T14:08:31.663Z,27.62
2023-03-26T14:11:44.377Z,26.16
2023-03-26T14:14:32.293Z,27.06
2023-03-26T14:17:05.674Z,27.21
2023-03-26T14:19:40.319Z,26.02
2023-03-26T14:22:18.264Z,26.48
2023-03-26T14:25:08.593Z,26.57
2023-03-26T14:28:13.983Z,26.09
2023-03-26T14:31:20.744Z,25.50
2023-03-26T14:34:17.655Z,26.88
2023-03-26T14:37:28.094Z,27.46
2023-03-26T14:40:20.490Z,26.60
2023-03-26T14:43:12.766Z,24.66
2023-03-26T14:46:11.011Z,24.57
2023-03-26T14:48:48.335Z,23.67
2023-03-26T14:51:41.458Z,24.93
2023-03-26T14:54:13.286Z,25.08
2023-03-26T14:56:50.082Z,24.58
2023-03-26T14:59:29.511Z,23.81
2023-03-26T15:02:22.284Z,25.49
2023-03-26T15:04:49.732Z,24.97
2023-03-26T15:07:36.112Z,25.37
2023-03-26T15:10:22.698Z,25.61
2023-03-26T15:13:21.622Z,24.91
2023-03-26T15:15:55.318Z,25.02
2023-03-26T15:18:32.305Z,25.02
2023-03-26T15:21:24.692Z,26.42
2023-03-26T15:24:13.414Z,25.59
2023-03-26T15:27:01.090Z,25.83
2023-03-26T15:29:40.559Z,26.87
2023-03-26T15:32:26.753Z,25.65
2023-03-26T15:35:16.939Z,25.35
2023-03-26T15:38:12.614Z,26.46
2023-03-26T15:41:01.628Z,26.94
2023-03-26T15:44:23.618Z,25.46
2023-03-26T15:47:15.578Z,25.54
2023-03-26T15:49:59.207Z,25.73
2023-03-26T15:52:32.499Z,27.69
2023-03-26T15:54:59.846Z,28.14
2023-03-26T15:57:44.075Z,27.80
2023-03-26T16:00:22.192Z,27.83
2023-03-26T16:03:10.908Z,28.42
2023-03-26T16:05:57.284Z,27.25
2023-03-26T16:08:47.005Z,27.75
2023-03-26T16:11:15.402Z,27.41
2023-03-26T16:13:49.508Z,27.49
2023-03-26T16:16:24.894Z,27.09
2023-03-26T16:18:58.988Z,27.21
2023-03-26T16:21:36.490Z,27.57
2023-03-26T16:24:07.363Z,26.92
2023-03-26T16:26:43.626Z,27.19
2023-03-26T16:29:18.139Z,28.17
2023-03-26T16:32:10.546Z,27.85
2023-03-26T16:34:42.775Z,27.69
2023-03-26T16:37:32.216Z,27.92
2023-03-26T16:40:22.278Z,28.00
2023-03-26T16:43:20.113Z,28.42
2023-03-26T16:45:57.031Z,28.55
2023-03-26T16:48:49.132Z,29.12
2023-03-26T16:51:22.380Z,29.15
2023-03-26T16:54:13.356Z,29.51
2023-03-26T16:56:47.463Z,29.68
2023-03-26T16:59:42.991Z,30.10
2023-03-26T17:02:19.840Z,30.10
2023-03-26T17:04:50.737Z,30.30
2023-03-26T17:07:24.243Z,31.18
2023-03-26T17:10:08.710Z,30.88
2023-03-26T17:13:10.921Z,31.06
2023-03-26T17:16:12.763Z,30.61
2023-03-26T17:18:55.734Z,30.70
2023-03-26T17:21:46.318Z,30.93
2023-03-26T17:24:33.844Z,30.80
2023-03-26T17:27:26.597Z,30.93
2023-03-26T17:30:16.105Z,30.88
2023-03-26T17:33:13.599Z,31.29
2023-03-26T17:35:46.454Z,43.67
2023-03-26T17:38:16.763Z,35.70
2023-03-26T17:41:00.637Z,35.74
2023-03-26T17:43:51.421Z,34.75
2023-03-26T17:46:37.998Z,33.57
2023-03-26T17:49:31.483Z,30.96
2023-03-26T17:52:02.058Z,30.87
2023-03-26T17:54:44.168Z,30.89
2023-03-26T17:57:27.134Z,30.81
2023-03-26T17:59:59.073Z,31.08
2023-03-26T18:02:43.656Z,31.34
2023-03-26T18:05:13.713Z,31.28
2023-03-26T18:08:19.755Z,31.40
2023-03-26T18:11:05.459Z,31.74
2023-03-26T18:14:02.791Z,31.41
2023-03-26T18:16:44.236Z,31.29
2023-03-26T18:19:19.843Z,31.81
2023-03-26T18:21:53.350Z,31.76
2023-03-26T18:24:30.289Z,31.71
2023-03-26T18:27:03.611Z,32.04
2023-03-26T18:29:33.355Z,32.13
2023-03-26T18:32:03.900Z,32.39
2023-03-26T18:34:34.058Z,32.28
2023-03-26T18:37:08.518Z,32.26
2023-03-26T18:39:36.568Z,32.35
2023-03-26T18:42:06.009Z,32.16
2023-03-26T18:44:36.706Z,34.74
2023-03-26T18:47:06.453Z,32.69
2023-03-26T18:49:33.936Z,32.17
2023-03-26T18:52:01.376Z,32.39
2023-03-26T18:54:33.846Z,32.27
2023-03-26T18:57:15.871Z,32.27
2023-03-26T18:59:45.400Z,32.13
2023-03-26T19:02:13.911Z,32.51
2023-03-26T19:04:46.123Z,32.44
2023-03-26T19:07:18.075Z,32.48
2023-03-26T19:09:45.580Z,32.71
2023-03-26T19:12:25.207Z,32.68
2023-03-26T19:15:07.783Z,32.84
2023-03-26T19:17:40.781Z,33.00
2023-03-26T19:20:16.742Z,33.24
2023-03-26T19:22:45.398Z,33.59
2023-03-26T19:25:21.689Z,33.54
2023-03-26T19:27:50.691Z,34.28
2023-03-26T19:30:28.488Z,33.76
2023-03-26T19:32:56.617Z,34.32
2023-03-26T19:35:42.557Z,35.30
2023-03-26T19:38:29.697Z,35.29
2023-03-26T19:40:58.112Z,34.53
2023-03-26T19:43:26.219Z,34.55
2023-03-26T19:46:00.352Z,34.63
2023-03-26T19:48:45.264Z,34.89
2023-03-26T19:51:31.546Z,34.26
2023-03-26T19:54:03.067Z,34.43
2023-03-26T19:56:30.817Z,34.67
2023-03-26T19:58:59.190Z,34.03
2023-03-26T20:01:29.203Z,33.79
2023-03-26T20:04:00.898Z,33.79
2023-03-26T20:06:41.491Z,33.99
2023-03-26T20:09:11.676Z,33.47
2023-03-26T20:11:39.708Z,33.15
2023-03-26T20:14:13.018Z,33.33
2023-03-26T20:16:42.810Z,33.22
2023-03-26T20:19:11.424Z,33.46
2023-03-26T20:21:40.245Z,33.33
2023-03-26T20:24:12.948Z,33.39
2023-03-26T20:26:40.642Z,33.39
2023-03-26T20:29:08.349Z,33.55
2023-03-26T20:31:35.922Z,33.54
2023-03-26T20:34:03.564Z,33.72
2023-03-26T20:36:34.256Z,33.91
2023-03-26T20:39:08.441Z,34.31
2023-03-26T20:41:42.769Z,34.11
2023-03-26T20:44:15.956Z,34.57
2023-03-26T20:46:45.369Z,34.90
2023-03-26T20:49:12.934Z,35.04
2023-03-26T20:51:42.022Z,35.29
2023-03-26T20:54:30.335Z,35.32
2023-03-26T20:56:58.145Z,35.27
2023-03-26T20:59:28.005Z,35.75
2023-03-26T21:01:56.979Z,35.93
2023-03-26T21:04:26.144Z,35.96
2023-03-26T21:07:00.295Z,35.59
2023-03-26T21:09:34.791Z,35.28
2023-03-26T21:12:06.016Z,35.69
2023-03-26T21:14:41.424Z,35.87
2023-03-26T21:17:22.261Z,36.89
2023-03-26T21:19:50.124Z,37.89
2023-03-26T21:22:41.172Z,37.62
2023-03-26T21:25:22.797Z,41.25
2023-03-26T21:28:09.167Z,43.97
2023-03-26T21:30:37.441Z,45.58
2023-03-26T21:33:06.243Z,47.90
2023-03-26T21:35:34.771Z,47.47
2023-03-26T21:38:04.725Z,48.29
2023-03-26T21:40:33.075Z,48.35
2023-03-26T21:43:01.063Z,48.65
2023-03-26T21:45:28.831Z,48.83
2023-03-26T21:47:57.032Z,48.65
2023-03-26T21:50:24.782Z,48.58
2023-03-26T21:52:52.627Z,48.42
2023-03-26T21:55:22.764Z,48.69
2023-03-26T21:58:13.198Z,48.39
2023-03-26T22:01:13.310Z,48.00
2023-03-26T22:03:47.001Z,48.05
2023-03-26T22:06:25.744Z,48.25
2023-03-26T22:08:53.553Z,48.71
2023-03-26T22:11:20.966Z,49.15
2023-03-26T22:13:48.391Z,50.34
2023-03-26T22:16:18.777Z,51.30
2023-03-26T22:18:46.244Z,52.08
2023-03-26T22:21:14.098Z,52.46
2023-03-26T22:23:41.831Z,53.33
2023-03-26T22:26:09.518Z,54.01
2023-03-26T22:28:37.199Z,54.89
2023-03-26T22:31:08.278Z,55.33
2023-03-26T22:33:36.070Z,55.88
2023-03-26T22:36:03.626Z,55.64
2023-03-26T22:38:31.336Z,56.46
2023-03-26T22:40:58.974Z,57.13
2023-03-26T22:43:26.514Z,57.67
2023-03-26T22:45:55.011Z,57.63
2023-03-26T22:48:23.813Z,58.08
2023-03-26T22:51:05.459Z,58.07
2023-03-26T22:53:33.138Z,57.98
2023-03-26T22:56:00.773Z,57.98
2023-03-26T22:58:28.623Z,58.13
2023-03-26T23:01:14.565Z,58.52
2023-03-26T23:03:43.038Z,58.54
2023-03-26T23:06:12.046Z,58.79
2023-03-26T23:08:40.055Z,58.88
2023-03-26T23:11:13.172Z,59.04
2023-03-26T23:13:41.720Z,58.95
2023-03-26T23:16:10.232Z,59.25
2023-03-26T23:18:38.150Z,59.36
2023-03-26T23:21:12.006Z,59.57
2023-03-26T23:23:39.955Z,60.39
2023-03-26T23:26:07.717Z,60.62
2023-03-26T23:28:35.655Z,60.56
2023-03-26T23:31:05.583Z,60.32
2023-03-26T23:33:35.383Z,60.04
2023-03-26T23:36:08.800Z,60.21
2023-03-26T23:38:43.422Z,60.21
2023-03-26T23:41:14.837Z,60.55
2023-03-26T23:43:54.878Z,61.29
2023-03-26T23:46:25.118Z,61.58
2023-03-26T23:48:53.250Z,61.19
2023-03-26T23:51:21.533Z,61.58
2023-03-26T23:53:49.530Z,61.53
2023-03-26T23:56:17.566Z,61.71
2023-03-26T23:58:45.254Z,61.57
